In Rescue
 
April 24, 2019 1:54 AM EDT
Weather Information
Wind Direction
  ---
Wind Speed
  00 kt (0 mph)
Wind Gust
  00 kt (0 mph)
Altimeter
30.02 in
Visibility
10 SM
Temperature
11° C
52° F
Dewpoint
11° C
52° F
Humidity
100%
Sky Condition
Scattered @ 4,600 ft
VFR

METAR KIMS 240554Z AUTO 00000KT 10SM SCT046 11/11 A3002 RMK AO1

FAA Disclaimer: The data displayed is for advisory purposes only and is not to be used for flight planning or operations.